sensor_id;sensor_type;location;lat;lon;timestamp;P1;durP1;ratioP1;P2;durP2;ratioP2
24521;SDS011;12680;57.804;12.190;2023-02-03T00:00:57;4.63;;;1.77;;
24521;SDS011;12680;57.804;12.190;2023-02-03T00:03:24;3.85;;;1.80;;
24521;SDS011;12680;57.804;12.190;2023-02-03T00:05:51;2.22;;;1.50;;
24521;SDS011;12680;57.804;12.190;2023-02-03T00:08:21;5.97;;;1.75;;
24521;SDS011;12680;57.804;12.190;2023-02-03T00:10:51;1.85;;;1.27;;
24521;SDS011;12680;57.804;12.190;2023-02-03T00:13:22;4.95;;;1.70;;
24521;SDS011;12680;57.804;12.190;2023-02-03T00:15:54;4.18;;;1.08;;
24521;SDS011;12680;57.804;12.190;2023-02-03T00:18:21;4.35;;;1.73;;
24521;SDS011;12680;57.804;12.190;2023-02-03T00:20:48;2.25;;;1.13;;
24521;SDS011;12680;57.804;12.190;2023-02-03T00:23:18;2.75;;;1.50;;
24521;SDS011;12680;57.804;12.190;2023-02-03T00:25:48;1.60;;;1.20;;
24521;SDS011;12680;57.804;12.190;2023-02-03T00:28:18;1.75;;;1.25;;
24521;SDS011;12680;57.804;12.190;2023-02-03T00:30:45;1.25;;;0.90;;
24521;SDS011;12680;57.804;12.190;2023-02-03T00:33:12;4.50;;;1.20;;
24521;SDS011;12680;57.804;12.190;2023-02-03T00:35:43;3.20;;;1.48;;
24521;SDS011;12680;57.804;12.190;2023-02-03T00:38:13;1.70;;;1.15;;
24521;SDS011;12680;57.804;12.190;2023-02-03T00:40:40;3.22;;;1.38;;
24521;SDS011;12680;57.804;12.190;2023-02-03T00:43:10;1.83;;;1.10;;
24521;SDS011;12680;57.804;12.190;2023-02-03T00:45:40;6.60;;;1.55;;
24521;SDS011;12680;57.804;12.190;2023-02-03T00:48:07;1.92;;;1.10;;
24521;SDS011;12680;57.804;12.190;2023-02-03T00:50:45;2.00;;;1.05;;
24521;SDS011;12680;57.804;12.190;2023-02-03T00:53:12;1.75;;;1.17;;
24521;SDS011;12680;57.804;12.190;2023-02-03T00:55:41;4.68;;;1.52;;
24521;SDS011;12680;57.804;12.190;2023-02-03T00:58:12;2.88;;;1.45;;
24521;SDS011;12680;57.804;12.190;2023-02-03T01:00:38;2.25;;;1.48;;
24521;SDS011;12680;57.804;12.190;2023-02-03T01:03:08;3.40;;;1.20;;
24521;SDS011;12680;57.804;12.190;2023-02-03T01:05:39;2.50;;;1.40;;
24521;SDS011;12680;57.804;12.190;2023-02-03T01:08:05;2.75;;;1.33;;
24521;SDS011;12680;57.804;12.190;2023-02-03T01:10:34;2.42;;;1.17;;
24521;SDS011;12680;57.804;12.190;2023-02-03T01:13:06;1.95;;;1.20;;
24521;SDS011;12680;57.804;12.190;2023-02-03T01:15:33;1.30;;;0.90;;
24521;SDS011;12680;57.804;12.190;2023-02-03T01:18:01;2.25;;;0.93;;
24521;SDS011;12680;57.804;12.190;2023-02-03T01:20:28;1.50;;;1.08;;
24521;SDS011;12680;57.804;12.190;2023-02-03T01:22:56;1.27;;;1.17;;
24521;SDS011;12680;57.804;12.190;2023-02-03T01:25:22;2.22;;;1.15;;
24521;SDS011;12680;57.804;12.190;2023-02-03T01:27:49;1.88;;;1.10;;
24521;SDS011;12680;57.804;12.190;2023-02-03T01:30:16;3.00;;;1.00;;
24521;SDS011;12680;57.804;12.190;2023-02-03T01:32:43;2.38;;;0.95;;
24521;SDS011;12680;57.804;12.190;2023-02-03T01:35:10;2.83;;;1.10;;
24521;SDS011;12680;57.804;12.190;2023-02-03T01:37:36;1.42;;;1.00;;
24521;SDS011;12680;57.804;12.190;2023-02-03T01:40:03;3.45;;;0.90;;
24521;SDS011;12680;57.804;12.190;2023-02-03T01:42:31;1.25;;;0.77;;
24521;SDS011;12680;57.804;12.190;2023-02-03T01:44:59;1.77;;;1.00;;
24521;SDS011;12680;57.804;12.190;2023-02-03T01:47:45;2.10;;;1.00;;
24521;SDS011;12680;57.804;12.190;2023-02-03T01:50:17;3.47;;;1.10;;
24521;SDS011;12680;57.804;12.190;2023-02-03T01:52:51;1.98;;;1.13;;
24521;SDS011;12680;57.804;12.190;2023-02-03T01:55:24;1.13;;;0.88;;
24521;SDS011;12680;57.804;12.190;2023-02-03T01:57:57;1.67;;;1.00;;
24521;SDS011;12680;57.804;12.190;2023-02-03T02:00:29;1.13;;;0.70;;
24521;SDS011;12680;57.804;12.190;2023-02-03T02:02:56;1.38;;;0.90;;
24521;SDS011;12680;57.804;12.190;2023-02-03T02:05:27;4.15;;;1.20;;
24521;SDS011;12680;57.804;12.190;2023-02-03T02:07:57;2.13;;;1.13;;
24521;SDS011;12680;57.804;12.190;2023-02-03T02:10:26;2.08;;;0.98;;
24521;SDS011;12680;57.804;12.190;2023-02-03T02:12:58;1.05;;;0.90;;
24521;SDS011;12680;57.804;12.190;2023-02-03T02:15:42;1.30;;;0.95;;
24521;SDS011;12680;57.804;12.190;2023-02-03T02:18:19;5.28;;;1.15;;
24521;SDS011;12680;57.804;12.190;2023-02-03T02:23:43;2.63;;;1.08;;
24521;SDS011;12680;57.804;12.190;2023-02-03T02:31:51;2.55;;;0.82;;
24521;SDS011;12680;57.804;12.190;2023-02-03T02:34:38;2.88;;;1.10;;
24521;SDS011;12680;57.804;12.190;2023-02-03T02:37:13;1.80;;;1.02;;
24521;SDS011;12680;57.804;12.190;2023-02-03T02:45:18;1.85;;;0.82;;
24521;SDS011;12680;57.804;12.190;2023-02-03T02:47:56;1.02;;;0.85;;
24521;SDS011;12680;57.804;12.190;2023-02-03T02:50:30;1.75;;;1.00;;
24521;SDS011;12680;57.804;12.190;2023-02-03T02:53:03;1.50;;;1.10;;
24521;SDS011;12680;57.804;12.190;2023-02-03T02:55:31;2.05;;;1.27;;
24521;SDS011;12680;57.804;12.190;2023-02-03T02:58:03;1.65;;;1.00;;
24521;SDS011;12680;57.804;12.190;2023-02-03T03:00:33;1.85;;;1.10;;
24521;SDS011;12680;57.804;12.190;2023-02-03T03:03:20;1.35;;;0.80;;
24521;SDS011;12680;57.804;12.190;2023-02-03T03:08:30;1.15;;;1.05;;
24521;SDS011;12680;57.804;12.190;2023-02-03T03:11:00;3.22;;;0.90;;
24521;SDS011;12680;57.804;12.190;2023-02-03T03:13:30;4.57;;;1.15;;
24521;SDS011;12680;57.804;12.190;2023-02-03T03:15:59;2.88;;;1.30;;
24521;SDS011;12680;57.804;12.190;2023-02-03T03:18:35;1.55;;;0.90;;
24521;SDS011;12680;57.804;12.190;2023-02-03T03:21:08;3.13;;;1.00;;
24521;SDS011;12680;57.804;12.190;2023-02-03T03:23:39;2.63;;;0.85;;
24521;SDS011;12680;57.804;12.190;2023-02-03T03:26:14;1.58;;;0.80;;
24521;SDS011;12680;57.804;12.190;2023-02-03T03:28:53;3.83;;;0.90;;
24521;SDS011;12680;57.804;12.190;2023-02-03T03:31:28;1.35;;;0.80;;
24521;SDS011;12680;57.804;12.190;2023-02-03T03:33:56;2.30;;;1.20;;
24521;SDS011;12680;57.804;12.190;2023-02-03T03:36:30;1.70;;;0.93;;
24521;SDS011;12680;57.804;12.190;2023-02-03T03:39:14;2.83;;;1.08;;
24521;SDS011;12680;57.804;12.190;2023-02-03T03:41:52;1.27;;;0.85;;
24521;SDS011;12680;57.804;12.190;2023-02-03T03:45:15;2.08;;;1.00;;
24521;SDS011;12680;57.804;12.190;2023-02-03T03:47:47;1.30;;;0.80;;
24521;SDS011;12680;57.804;12.190;2023-02-03T03:50:21;0.68;;;0.68;;
24521;SDS011;12680;57.804;12.190;2023-02-03T03:52:56;0.95;;;0.80;;
24521;SDS011;12680;57.804;12.190;2023-02-03T03:55:31;7.30;;;1.40;;
24521;SDS011;12680;57.804;12.190;2023-02-03T03:58:01;1.00;;;0.93;;
24521;SDS011;12680;57.804;12.190;2023-02-03T04:00:31;3.13;;;0.75;;
24521;SDS011;12680;57.804;12.190;2023-02-03T04:03:14;1.98;;;0.80;;
24521;SDS011;12680;57.804;12.190;2023-02-03T04:05:44;0.70;;;0.70;;
24521;SDS011;12680;57.804;12.190;2023-02-03T04:08:11;2.25;;;0.77;;
24521;SDS011;12680;57.804;12.190;2023-02-03T04:10:40;1.30;;;0.85;;
24521;SDS011;12680;57.804;12.190;2023-02-03T04:13:08;0.68;;;0.50;;
24521;SDS011;12680;57.804;12.190;2023-02-03T04:15:36;0.50;;;0.50;;
24521;SDS011;12680;57.804;12.190;2023-02-03T04:18:03;0.80;;;0.80;;
24521;SDS011;12680;57.804;12.190;2023-02-03T04:20:31;0.50;;;0.50;;
24521;SDS011;12680;57.804;12.190;2023-02-03T04:22:58;0.93;;;0.55;;
24521;SDS011;12680;57.804;12.190;2023-02-03T04:25:25;1.08;;;0.82;;
24521;SDS011;12680;57.804;12.190;2023-02-03T04:27:52;0.93;;;0.70;;
24521;SDS011;12680;57.804;12.190;2023-02-03T04:30:19;1.10;;;0.70;;
24521;SDS011;12680;57.804;12.190;2023-02-03T04:32:46;0.75;;;0.68;;
24521;SDS011;12680;57.804;12.190;2023-02-03T04:35:13;1.55;;;0.63;;
24521;SDS011;12680;57.804;12.190;2023-02-03T04:37:41;3.15;;;0.90;;
24521;SDS011;12680;57.804;12.190;2023-02-03T04:40:08;1.10;;;0.68;;
24521;SDS011;12680;57.804;12.190;2023-02-03T04:42:36;0.63;;;0.63;;
24521;SDS011;12680;57.804;12.190;2023-02-03T04:45:04;0.70;;;0.60;;
24521;SDS011;12680;57.804;12.190;2023-02-03T04:47:32;0.30;;;0.30;;
24521;SDS011;12680;57.804;12.190;2023-02-03T04:49:59;0.40;;;0.40;;
24521;SDS011;12680;57.804;12.190;2023-02-03T04:52:26;0.60;;;0.43;;
24521;SDS011;12680;57.804;12.190;2023-02-03T04:54:53;1.52;;;0.70;;
24521;SDS011;12680;57.804;12.190;2023-02-03T04:57:20;1.92;;;0.47;;
24521;SDS011;12680;57.804;12.190;2023-02-03T04:59:46;0.40;;;0.40;;
24521;SDS011;12680;57.804;12.190;2023-02-03T05:02:13;0.73;;;0.50;;
24521;SDS011;12680;57.804;12.190;2023-02-03T05:04:40;1.05;;;0.50;;
24521;SDS011;12680;57.804;12.190;2023-02-03T05:07:07;0.57;;;0.55;;
24521;SDS011;12680;57.804;12.190;2023-02-03T05:09:34;0.43;;;0.40;;
24521;SDS011;12680;57.804;12.190;2023-02-03T05:12:01;0.30;;;0.30;;
24521;SDS011;12680;57.804;12.190;2023-02-03T05:14:28;0.75;;;0.47;;
24521;SDS011;12680;57.804;12.190;2023-02-03T05:16:55;1.33;;;0.45;;
24521;SDS011;12680;57.804;12.190;2023-02-03T05:19:21;0.47;;;0.40;;
24521;SDS011;12680;57.804;12.190;2023-02-03T05:21:48;0.60;;;0.50;;
24521;SDS011;12680;57.804;12.190;2023-02-03T05:24:15;0.93;;;0.52;;
24521;SDS011;12680;57.804;12.190;2023-02-03T05:26:42;1.27;;;0.57;;
24521;SDS011;12680;57.804;12.190;2023-02-03T05:29:09;0.55;;;0.50;;
24521;SDS011;12680;57.804;12.190;2023-02-03T05:31:37;0.60;;;0.50;;
24521;SDS011;12680;57.804;12.190;2023-02-03T05:34:04;0.60;;;0.60;;
24521;SDS011;12680;57.804;12.190;2023-02-03T05:36:30;0.50;;;0.40;;
24521;SDS011;12680;57.804;12.190;2023-02-03T05:38:57;1.40;;;1.17;;
24521;SDS011;12680;57.804;12.190;2023-02-03T05:41:31;0.60;;;0.60;;
24521;SDS011;12680;57.804;12.190;2023-02-03T05:44:26;0.40;;;0.40;;
24521;SDS011;12680;57.804;12.190;2023-02-03T05:46:55;0.88;;;0.60;;
24521;SDS011;12680;57.804;12.190;2023-02-03T05:49:23;2.17;;;1.58;;
24521;SDS011;12680;57.804;12.190;2023-02-03T05:51:51;0.30;;;0.30;;
24521;SDS011;12680;57.804;12.190;2023-02-03T05:54:19;0.47;;;0.47;;
24521;SDS011;12680;57.804;12.190;2023-02-03T05:56:45;1.80;;;0.45;;
24521;SDS011;12680;57.804;12.190;2023-02-03T05:59:12;0.52;;;0.50;;
24521;SDS011;12680;57.804;12.190;2023-02-03T06:01:39;0.38;;;0.38;;
24521;SDS011;12680;57.804;12.190;2023-02-03T06:04:06;0.90;;;0.55;;
24521;SDS011;12680;57.804;12.190;2023-02-03T06:06:33;0.45;;;0.45;;
24521;SDS011;12680;57.804;12.190;2023-02-03T06:09:00;0.40;;;0.40;;
24521;SDS011;12680;57.804;12.190;2023-02-03T06:11:31;0.30;;;0.30;;
24521;SDS011;12680;57.804;12.190;2023-02-03T06:13:58;0.55;;;0.40;;
24521;SDS011;12680;57.804;12.190;2023-02-03T06:16:26;0.75;;;0.45;;
24521;SDS011;12680;57.804;12.190;2023-02-03T06:18:54;0.52;;;0.45;;
24521;SDS011;12680;57.804;12.190;2023-02-03T06:21:26;0.40;;;0.40;;
24521;SDS011;12680;57.804;12.190;2023-02-03T06:23:53;0.40;;;0.32;;
24521;SDS011;12680;57.804;12.190;2023-02-03T06:26:21;0.60;;;0.60;;
24521;SDS011;12680;57.804;12.190;2023-02-03T06:28:47;3.03;;;0.45;;
24521;SDS011;12680;57.804;12.190;2023-02-03T06:31:14;0.30;;;0.30;;
24521;SDS011;12680;57.804;12.190;2023-02-03T06:33:41;0.43;;;0.40;;
24521;SDS011;12680;57.804;12.190;2023-02-03T06:36:08;0.25;;;0.25;;
24521;SDS011;12680;57.804;12.190;2023-02-03T06:38:35;0.32;;;0.32;;
24521;SDS011;12680;57.804;12.190;2023-02-03T06:41:02;0.30;;;0.30;;
24521;SDS011;12680;57.804;12.190;2023-02-03T06:43:29;0.30;;;0.30;;
24521;SDS011;12680;57.804;12.190;2023-02-03T06:45:55;0.40;;;0.25;;
24521;SDS011;12680;57.804;12.190;2023-02-03T06:48:22;0.82;;;0.40;;
24521;SDS011;12680;57.804;12.190;2023-02-03T06:50:49;0.30;;;0.30;;
24521;SDS011;12680;57.804;12.190;2023-02-03T06:53:16;0.52;;;0.40;;
24521;SDS011;12680;57.804;12.190;2023-02-03T06:55:42;0.85;;;0.47;;
24521;SDS011;12680;57.804;12.190;2023-02-03T06:58:09;0.40;;;0.40;;
24521;SDS011;12680;57.804;12.190;2023-02-03T07:00:36;0.22;;;0.22;;
24521;SDS011;12680;57.804;12.190;2023-02-03T07:03:03;0.25;;;0.25;;
24521;SDS011;12680;57.804;12.190;2023-02-03T07:05:30;0.80;;;0.38;;
24521;SDS011;12680;57.804;12.190;2023-02-03T07:07:56;0.45;;;0.43;;
24521;SDS011;12680;57.804;12.190;2023-02-03T07:10:24;0.43;;;0.40;;
24521;SDS011;12680;57.804;12.190;2023-02-03T07:12:51;1.75;;;0.32;;
24521;SDS011;12680;57.804;12.190;2023-02-03T07:15:18;0.63;;;0.50;;
24521;SDS011;12680;57.804;12.190;2023-02-03T07:17:46;0.40;;;0.40;;
24521;SDS011;12680;57.804;12.190;2023-02-03T07:20:20;0.68;;;0.30;;
24521;SDS011;12680;57.804;12.190;2023-02-03T07:22:51;0.30;;;0.30;;
24521;SDS011;12680;57.804;12.190;2023-02-03T07:25:19;1.42;;;0.90;;
24521;SDS011;12680;57.804;12.190;2023-02-03T07:27:46;0.60;;;0.50;;
24521;SDS011;12680;57.804;12.190;2023-02-03T07:30:13;0.30;;;0.30;;
24521;SDS011;12680;57.804;12.190;2023-02-03T07:32:40;0.30;;;0.30;;
24521;SDS011;12680;57.804;12.190;2023-02-03T07:35:11;0.50;;;0.50;;
24521;SDS011;12680;57.804;12.190;2023-02-03T07:37:37;14.85;;;4.65;;
24521;SDS011;12680;57.804;12.190;2023-02-03T07:40:04;2.58;;;1.13;;
24521;SDS011;12680;57.804;12.190;2023-02-03T07:42:31;0.47;;;0.47;;
24521;SDS011;12680;57.804;12.190;2023-02-03T07:44:58;0.50;;;0.40;;
24521;SDS011;12680;57.804;12.190;2023-02-03T07:47:24;6.35;;;1.83;;
24521;SDS011;12680;57.804;12.190;2023-02-03T07:49:51;1.58;;;0.70;;
24521;SDS011;12680;57.804;12.190;2023-02-03T07:52:18;1.27;;;0.70;;
24521;SDS011;12680;57.804;12.190;2023-02-03T07:54:47;0.38;;;0.38;;
24521;SDS011;12680;57.804;12.190;2023-02-03T07:57:13;1.67;;;0.80;;
24521;SDS011;12680;57.804;12.190;2023-02-03T07:59:40;1.00;;;0.90;;
24521;SDS011;12680;57.804;12.190;2023-02-03T08:02:07;2.28;;;0.77;;
24521;SDS011;12680;57.804;12.190;2023-02-03T08:04:36;1.05;;;0.70;;
24521;SDS011;12680;57.804;12.190;2023-02-03T08:07:03;1.13;;;0.50;;
24521;SDS011;12680;57.804;12.190;2023-02-03T08:09:30;0.35;;;0.35;;
24521;SDS011;12680;57.804;12.190;2023-02-03T08:11:57;0.55;;;0.50;;
24521;SDS011;12680;57.804;12.190;2023-02-03T08:14:23;0.50;;;0.50;;
24521;SDS011;12680;57.804;12.190;2023-02-03T08:16:50;0.55;;;0.43;;
24521;SDS011;12680;57.804;12.190;2023-02-03T08:19:17;0.50;;;0.40;;
24521;SDS011;12680;57.804;12.190;2023-02-03T08:21:43;0.43;;;0.38;;
24521;SDS011;12680;57.804;12.190;2023-02-03T08:24:10;0.30;;;0.30;;
24521;SDS011;12680;57.804;12.190;2023-02-03T08:26:37;0.40;;;0.40;;
24521;SDS011;12680;57.804;12.190;2023-02-03T08:29:04;0.32;;;0.32;;
24521;SDS011;12680;57.804;12.190;2023-02-03T08:31:30;0.32;;;0.32;;
24521;SDS011;12680;57.804;12.190;2023-02-03T08:33:57;0.40;;;0.30;;
24521;SDS011;12680;57.804;12.190;2023-02-03T08:36:39;0.30;;;0.30;;
24521;SDS011;12680;57.804;12.190;2023-02-03T08:39:05;0.40;;;0.30;;
24521;SDS011;12680;57.804;12.190;2023-02-03T08:41:33;0.30;;;0.30;;
24521;SDS011;12680;57.804;12.190;2023-02-03T08:44:00;1.13;;;0.50;;
24521;SDS011;12680;57.804;12.190;2023-02-03T08:46:27;0.25;;;0.20;;
24521;SDS011;12680;57.804;12.190;2023-02-03T08:48:54;0.30;;;0.30;;
24521;SDS011;12680;57.804;12.190;2023-02-03T08:51:21;0.93;;;0.50;;
24521;SDS011;12680;57.804;12.190;2023-02-03T08:53:49;0.40;;;0.40;;
24521;SDS011;12680;57.804;12.190;2023-02-03T08:56:16;0.40;;;0.40;;
24521;SDS011;12680;57.804;12.190;2023-02-03T08:58:43;0.47;;;0.47;;
24521;SDS011;12680;57.804;12.190;2023-02-03T09:01:11;0.20;;;0.20;;
24521;SDS011;12680;57.804;12.190;2023-02-03T09:03:40;0.30;;;0.30;;
24521;SDS011;12680;57.804;12.190;2023-02-03T09:06:08;0.80;;;0.35;;
24521;SDS011;12680;57.804;12.190;2023-02-03T09:08:37;0.30;;;0.30;;
24521;SDS011;12680;57.804;12.190;2023-02-03T09:11:08;0.38;;;0.30;;
24521;SDS011;12680;57.804;12.190;2023-02-03T09:13:36;0.40;;;0.40;;
24521;SDS011;12680;57.804;12.190;2023-02-03T09:16:06;0.40;;;0.40;;
24521;SDS011;12680;57.804;12.190;2023-02-03T09:18:33;0.90;;;0.50;;
24521;SDS011;12680;57.804;12.190;2023-02-03T09:21:04;1.52;;;0.40;;
24521;SDS011;12680;57.804;12.190;2023-02-03T09:23:33;0.45;;;0.40;;
24521;SDS011;12680;57.804;12.190;2023-02-03T09:26:03;0.30;;;0.30;;
24521;SDS011;12680;57.804;12.190;2023-02-03T09:28:31;0.85;;;0.50;;
24521;SDS011;12680;57.804;12.190;2023-02-03T09:30:59;0.20;;;0.20;;
24521;SDS011;12680;57.804;12.190;2023-02-03T09:33:26;0.50;;;0.30;;
24521;SDS011;12680;57.804;12.190;2023-02-03T09:35:53;0.50;;;0.50;;
24521;SDS011;12680;57.804;12.190;2023-02-03T09:38:21;0.30;;;0.30;;
24521;SDS011;12680;57.804;12.190;2023-02-03T09:40:51;0.90;;;0.47;;
24521;SDS011;12680;57.804;12.190;2023-02-03T09:43:38;0.63;;;0.30;;
24521;SDS011;12680;57.804;12.190;2023-02-03T09:46:17;0.75;;;0.63;;
24521;SDS011;12680;57.804;12.190;2023-02-03T09:49:06;1.98;;;0.73;;
24521;SDS011;12680;57.804;12.190;2023-02-03T09:52:01;0.98;;;0.70;;
24521;SDS011;12680;57.804;12.190;2023-02-03T09:57:16;0.82;;;0.82;;
24521;SDS011;12680;57.804;12.190;2023-02-03T09:59:47;0.60;;;0.60;;
24521;SDS011;12680;57.804;12.190;2023-02-03T10:02:28;0.63;;;0.50;;
24521;SDS011;12680;57.804;12.190;2023-02-03T10:07:50;0.63;;;0.45;;
24521;SDS011;12680;57.804;12.190;2023-02-03T10:10:31;1.55;;;0.70;;
24521;SDS011;12680;57.804;12.190;2023-02-03T10:13:08;2.33;;;0.50;;
24521;SDS011;12680;57.804;12.190;2023-02-03T10:18:12;0.68;;;0.55;;
24521;SDS011;12680;57.804;12.190;2023-02-03T10:20:47;0.40;;;0.40;;
24521;SDS011;12680;57.804;12.190;2023-02-03T10:23:32;1.25;;;0.57;;
24521;SDS011;12680;57.804;12.190;2023-02-03T10:26:05;0.98;;;0.70;;
24521;SDS011;12680;57.804;12.190;2023-02-03T10:28:38;1.38;;;0.77;;
24521;SDS011;12680;57.804;12.190;2023-02-03T10:31:14;0.73;;;0.55;;
24521;SDS011;12680;57.804;12.190;2023-02-03T10:33:45;0.60;;;0.50;;
24521;SDS011;12680;57.804;12.190;2023-02-03T10:36:19;0.68;;;0.47;;
24521;SDS011;12680;57.804;12.190;2023-02-03T10:39:02;0.65;;;0.40;;
24521;SDS011;12680;57.804;12.190;2023-02-03T10:41:42;0.43;;;0.43;;
24521;SDS011;12680;57.804;12.190;2023-02-03T10:44:09;0.77;;;0.68;;
24521;SDS011;12680;57.804;12.190;2023-02-03T10:46:39;0.45;;;0.45;;
24521;SDS011;12680;57.804;12.190;2023-02-03T10:49:08;0.40;;;0.40;;
24521;SDS011;12680;57.804;12.190;2023-02-03T10:51:46;0.50;;;0.50;;
24521;SDS011;12680;57.804;12.190;2023-02-03T10:54:34;0.40;;;0.40;;
24521;SDS011;12680;57.804;12.190;2023-02-03T10:57:10;2.80;;;0.70;;
24521;SDS011;12680;57.804;12.190;2023-02-03T10:59:44;0.75;;;0.50;;
24521;SDS011;12680;57.804;12.190;2023-02-03T11:02:22;0.50;;;0.50;;
24521;SDS011;12680;57.804;12.190;2023-02-03T11:07:43;0.40;;;0.40;;
24521;SDS011;12680;57.804;12.190;2023-02-03T11:10:27;0.45;;;0.40;;
24521;SDS011;12680;57.804;12.190;2023-02-03T11:13:15;0.43;;;0.40;;
24521;SDS011;12680;57.804;12.190;2023-02-03T11:15:43;0.30;;;0.30;;
24521;SDS011;12680;57.804;12.190;2023-02-03T11:18:35;0.40;;;0.30;;
24521;SDS011;12680;57.804;12.190;2023-02-03T11:23:43;1.00;;;0.50;;
24521;SDS011;12680;57.804;12.190;2023-02-03T11:26:23;0.30;;;0.30;;
24521;SDS011;12680;57.804;12.190;2023-02-03T11:29:02;1.80;;;0.47;;
24521;SDS011;12680;57.804;12.190;2023-02-03T11:31:32;0.50;;;0.47;;
24521;SDS011;12680;57.804;12.190;2023-02-03T11:34:05;0.40;;;0.35;;
24521;SDS011;12680;57.804;12.190;2023-02-03T11:36:40;0.60;;;0.40;;
24521;SDS011;12680;57.804;12.190;2023-02-03T11:39:23;0.40;;;0.40;;
24521;SDS011;12680;57.804;12.190;2023-02-03T11:41:55;1.02;;;0.50;;
24521;SDS011;12680;57.804;12.190;2023-02-03T11:44:23;0.35;;;0.35;;
24521;SDS011;12680;57.804;12.190;2023-02-03T11:46:55;0.50;;;0.40;;
24521;SDS011;12680;57.804;12.190;2023-02-03T12:00:45;0.85;;;0.50;;
24521;SDS011;12680;57.804;12.190;2023-02-03T12:03:29;0.38;;;0.30;;
24521;SDS011;12680;57.804;12.190;2023-02-03T12:07:02;0.47;;;0.47;;
24521;SDS011;12680;57.804;12.190;2023-02-03T12:09:16;0.30;;;0.30;;
24521;SDS011;12680;57.804;12.190;2023-02-03T12:14:48;0.30;;;0.30;;
24521;SDS011;12680;57.804;12.190;2023-02-03T12:17:19;0.47;;;0.47;;
24521;SDS011;12680;57.804;12.190;2023-02-03T12:22:31;0.52;;;0.43;;
24521;SDS011;12680;57.804;12.190;2023-02-03T12:25:35;0.28;;;0.25;;
24521;SDS011;12680;57.804;12.190;2023-02-03T12:28:25;1.20;;;0.73;;
24521;SDS011;12680;57.804;12.190;2023-02-03T12:31:07;0.40;;;0.40;;
24521;SDS011;12680;57.804;12.190;2023-02-03T12:33:51;0.73;;;0.30;;
24521;SDS011;12680;57.804;12.190;2023-02-03T12:36:26;0.63;;;0.40;;
24521;SDS011;12680;57.804;12.190;2023-02-03T12:39:02;0.70;;;0.45;;
24521;SDS011;12680;57.804;12.190;2023-02-03T12:41:35;2.63;;;0.90;;
24521;SDS011;12680;57.804;12.190;2023-02-03T12:44:17;1.05;;;0.70;;
24521;SDS011;12680;57.804;12.190;2023-02-03T12:46:51;0.68;;;0.68;;
24521;SDS011;12680;57.804;12.190;2023-02-03T12:49:29;1.38;;;0.60;;
24521;SDS011;12680;57.804;12.190;2023-02-03T12:52:10;0.60;;;0.50;;
24521;SDS011;12680;57.804;12.190;2023-02-03T12:54:51;0.88;;;0.38;;
24521;SDS011;12680;57.804;12.190;2023-02-03T12:57:27;0.40;;;0.40;;
24521;SDS011;12680;57.804;12.190;2023-02-03T13:03:01;0.70;;;0.70;;
24521;SDS011;12680;57.804;12.190;2023-02-03T13:05:41;1.42;;;0.70;;
24521;SDS011;12680;57.804;12.190;2023-02-03T13:14:41;0.47;;;0.47;;
24521;SDS011;12680;57.804;12.190;2023-02-03T13:16:49;0.77;;;0.50;;
24521;SDS011;12680;57.804;12.190;2023-02-03T13:19:20;0.30;;;0.30;;
24521;SDS011;12680;57.804;12.190;2023-02-03T13:21:50;2.30;;;0.43;;
24521;SDS011;12680;57.804;12.190;2023-02-03T13:24:18;1.30;;;0.63;;
24521;SDS011;12680;57.804;12.190;2023-02-03T13:29:30;1.00;;;0.50;;
24521;SDS011;12680;57.804;12.190;2023-02-03T13:43:28;1.55;;;0.55;;
24521;SDS011;12680;57.804;12.190;2023-02-03T13:46:04;0.68;;;0.30;;
24521;SDS011;12680;57.804;12.190;2023-02-03T13:48:36;0.30;;;0.30;;
24521;SDS011;12680;57.804;12.190;2023-02-03T13:51:07;0.50;;;0.50;;
24521;SDS011;12680;57.804;12.190;2023-02-03T13:53:41;0.95;;;0.60;;
24521;SDS011;12680;57.804;12.190;2023-02-03T13:56:15;0.70;;;0.55;;
24521;SDS011;12680;57.804;12.190;2023-02-03T13:59:00;0.95;;;0.40;;
24521;SDS011;12680;57.804;12.190;2023-02-03T14:04:02;0.28;;;0.28;;
24521;SDS011;12680;57.804;12.190;2023-02-03T14:11:47;0.52;;;0.40;;
24521;SDS011;12680;57.804;12.190;2023-02-03T14:16:43;0.47;;;0.47;;
24521;SDS011;12680;57.804;12.190;2023-02-03T14:21:59;0.90;;;0.57;;
24521;SDS011;12680;57.804;12.190;2023-02-03T14:24:37;1.35;;;0.60;;
24521;SDS011;12680;57.804;12.190;2023-02-03T14:27:16;0.80;;;0.50;;
24521;SDS011;12680;57.804;12.190;2023-02-03T14:30:00;2.10;;;0.68;;
24521;SDS011;12680;57.804;12.190;2023-02-03T14:32:46;0.40;;;0.40;;
24521;SDS011;12680;57.804;12.190;2023-02-03T14:35:20;0.40;;;0.40;;
24521;SDS011;12680;57.804;12.190;2023-02-03T14:37:59;0.28;;;0.28;;
24521;SDS011;12680;57.804;12.190;2023-02-03T14:40:33;1.70;;;0.80;;
24521;SDS011;12680;57.804;12.190;2023-02-03T14:43:14;3.00;;;1.35;;
24521;SDS011;12680;57.804;12.190;2023-02-03T14:54:17;1.77;;;1.20;;
24521;SDS011;12680;57.804;12.190;2023-02-03T14:59:42;1.95;;;1.52;;
24521;SDS011;12680;57.804;12.190;2023-02-03T15:02:18;1.95;;;1.45;;
24521;SDS011;12680;57.804;12.190;2023-02-03T15:04:51;1.42;;;1.27;;
24521;SDS011;12680;57.804;12.190;2023-02-03T15:07:39;2.65;;;1.92;;
24521;SDS011;12680;57.804;12.190;2023-02-03T15:10:15;1.83;;;1.38;;
24521;SDS011;12680;57.804;12.190;2023-02-03T15:12:54;1.67;;;1.50;;
24521;SDS011;12680;57.804;12.190;2023-02-03T15:15:27;13.40;;;6.82;;
24521;SDS011;12680;57.804;12.190;2023-02-03T15:17:56;22.00;;;9.52;;
24521;SDS011;12680;57.804;12.190;2023-02-03T15:22:54;4.10;;;2.63;;
24521;SDS011;12680;57.804;12.190;2023-02-03T15:25:21;5.18;;;2.85;;
24521;SDS011;12680;57.804;12.190;2023-02-03T15:28:08;5.70;;;3.53;;
24521;SDS011;12680;57.804;12.190;2023-02-03T15:30:36;4.43;;;2.50;;
24521;SDS011;12680;57.804;12.190;2023-02-03T15:33:10;3.08;;;2.05;;
24521;SDS011;12680;57.804;12.190;2023-02-03T15:35:45;5.00;;;2.50;;
24521;SDS011;12680;57.804;12.190;2023-02-03T15:38:30;4.72;;;2.50;;
24521;SDS011;12680;57.804;12.190;2023-02-03T15:41:03;3.28;;;1.77;;
24521;SDS011;12680;57.804;12.190;2023-02-03T15:43:37;2.25;;;1.70;;
24521;SDS011;12680;57.804;12.190;2023-02-03T15:46:08;2.95;;;2.50;;
24521;SDS011;12680;57.804;12.190;2023-02-03T15:48:57;3.30;;;2.58;;
24521;SDS011;12680;57.804;12.190;2023-02-03T15:51:34;3.38;;;2.22;;
24521;SDS011;12680;57.804;12.190;2023-02-03T15:56:50;4.43;;;2.75;;
24521;SDS011;12680;57.804;12.190;2023-02-03T15:59:31;4.53;;;2.40;;
24521;SDS011;12680;57.804;12.190;2023-02-03T16:02:01;2.92;;;2.30;;
24521;SDS011;12680;57.804;12.190;2023-02-03T16:04:37;6.63;;;4.15;;
24521;SDS011;12680;57.804;12.190;2023-02-03T16:07:04;6.40;;;4.50;;
24521;SDS011;12680;57.804;12.190;2023-02-03T16:09:31;3.20;;;2.30;;
24521;SDS011;12680;57.804;12.190;2023-02-03T16:14:50;3.25;;;2.75;;
24521;SDS011;12680;57.804;12.190;2023-02-03T16:20:21;2.80;;;2.00;;
24521;SDS011;12680;57.804;12.190;2023-02-03T16:25:28;4.15;;;2.42;;
24521;SDS011;12680;57.804;12.190;2023-02-03T16:27:58;4.45;;;2.85;;
24521;SDS011;12680;57.804;12.190;2023-02-03T16:31:19;6.15;;;3.70;;
24521;SDS011;12680;57.804;12.190;2023-02-03T16:34:13;6.10;;;3.38;;
24521;SDS011;12680;57.804;12.190;2023-02-03T16:37:09;5.07;;;3.03;;
24521;SDS011;12680;57.804;12.190;2023-02-03T16:39:56;3.72;;;2.83;;
24521;SDS011;12680;57.804;12.190;2023-02-03T16:42:41;4.43;;;2.40;;
24521;SDS011;12680;57.804;12.190;2023-02-03T16:45:27;3.45;;;2.22;;
24521;SDS011;12680;57.804;12.190;2023-02-03T16:48:13;6.53;;;3.63;;
24521;SDS011;12680;57.804;12.190;2023-02-03T16:51:04;4.22;;;2.83;;